Decoded Metar for KMIC (MNPLS/CRYSTAL in MN, USA) (IATA:MIC) | Meteo·Mobile Aviation Weather
aviador You're here:

KMIC Decoded Metar

MNPLS/CRYSTAL in MN, USA
Report Time2018-09-19 19:53:00
UTC Time2018-09-19 20:37:10
Flight Rules ifr IFR
Wind070° at 05 kt
W.Decomp.*RWY 06: 5.0 kt HW 0.7 kt RCW
RWY 14: 1.5 kt HW 4.8 kt LCW
W.Rank070° ranks 33
Current wind is below 070° avg. (5.8)
Visibility9999 m
Phenomena:N/A
Clouds:Overcast 007 Hf
Expected CloudBase > 400 ft AGL from Temp-Dew spread
Ceiling700 ft
Temp17°C (ISA +4)
Dew Point16°C (94% RH)
QNH1014 hPa
Density Alt1,519 ft
Elevation869 ft
Report Wrong Elevation
Raw Report
KMIC 191953Z 07005KT 10SM OVC007 17/16 A2994 RMK AO2 SLP139
T01670156=

Extra information for KMIC:More info

Metar Taf Metar & Taf Last 4 Metars F.Rules Stats Wind Profile Meteogram Temp Stats Airport Information Weather charts Add Link Nearby VenuesMetar ALERT Operation Metar Decoded Social comments

AIRNAV info for KMIC